createdAt,value
2023-03-05T00:01:33.578Z,10.67
2023-03-05T00:04:35.704Z,12.83
2023-03-05T00:07:37.850Z,10.98
2023-03-05T00:10:39.943Z,11.63
2023-03-05T00:13:42.598Z,17.35
2023-03-05T00:16:44.676Z,13.90
2023-03-05T00:19:46.826Z,11.97
2023-03-05T00:22:49.635Z,14.45
2023-03-05T00:25:51.724Z,12.52
2023-03-05T00:28:55.870Z,14.43
2023-03-05T00:31:58.371Z,12.25
2023-03-05T00:35:00.396Z,14.43
2023-03-05T00:38:02.435Z,16.27
2023-03-05T00:41:04.754Z,13.30
2023-03-05T00:44:07.338Z,12.88
2023-03-05T00:47:09.341Z,15.73
2023-03-05T00:50:12.737Z,16.83
2023-03-05T00:53:14.765Z,17.23
2023-03-05T00:56:16.973Z,19.02
2023-03-05T00:59:19.372Z,17.00
2023-03-05T01:02:21.831Z,16.50
2023-03-05T01:05:24.090Z,21.00
2023-03-05T01:08:27.440Z,13.68
2023-03-05T01:11:29.709Z,15.82
2023-03-05T01:14:32.542Z,23.23
2023-03-05T01:17:34.825Z,20.65
2023-03-05T01:20:37.095Z,22.07
2023-03-05T01:23:40.246Z,21.33
2023-03-05T01:26:42.515Z,18.77
2023-03-05T01:29:44.761Z,20.25
2023-03-05T01:32:46.980Z,21.70
2023-03-05T01:35:50.163Z,22.93
2023-03-05T01:38:52.806Z,23.27
2023-03-05T01:41:55.020Z,24.33
2023-03-05T01:45:11.935Z,19.77
2023-03-05T01:48:13.989Z,21.40
2023-03-05T01:51:18.487Z,19.90
2023-03-05T01:54:24.950Z,19.95
2023-03-05T01:57:29.126Z,18.05
2023-03-05T02:00:37.727Z,20.45
2023-03-05T02:03:41.703Z,19.83
2023-03-05T02:06:44.943Z,22.73
2023-03-05T02:09:47.790Z,25.33
2023-03-05T02:12:50.904Z,22.73
2023-03-05T02:15:54.587Z,20.55
2023-03-05T02:18:57.047Z,23.67
2023-03-05T02:21:59.346Z,27.33
2023-03-05T02:25:01.519Z,26.00
2023-03-05T02:28:09.356Z,27.52
2023-03-05T02:31:18.173Z,25.15
2023-03-05T02:34:20.328Z,26.88
2023-03-05T02:37:22.371Z,23.60
2023-03-05T02:40:26.786Z,28.95
2023-03-05T02:43:29.134Z,32.33
2023-03-05T02:46:31.228Z,29.38
2023-03-05T02:49:33.516Z,29.13
2023-03-05T02:52:35.956Z,29.10
2023-03-05T02:55:40.105Z,27.10
2023-03-05T02:58:42.311Z,27.95
2023-03-05T03:01:44.885Z,25.45
2023-03-05T03:04:47.028Z,28.50
2023-03-05T03:07:49.577Z,24.50
2023-03-05T03:10:52.108Z,24.42
2023-03-05T03:13:54.195Z,22.27
2023-03-05T03:16:56.646Z,23.77
2023-03-05T03:19:58.772Z,23.08
2023-03-05T03:23:01.139Z,27.23
2023-03-05T03:26:03.272Z,22.58
2023-03-05T03:29:05.426Z,21.55
2023-03-05T03:32:08.717Z,26.33
2023-03-05T03:35:13.053Z,28.77
2023-03-05T03:38:15.492Z,26.90
2023-03-05T03:41:18.947Z,22.10
2023-03-05T03:44:21.960Z,21.15
2023-03-05T03:47:24.029Z,17.20
2023-03-05T03:50:26.351Z,15.33
2023-03-05T03:53:28.418Z,16.33
2023-03-05T03:56:30.443Z,18.42
2023-03-05T03:59:32.512Z,16.65
2023-03-05T04:02:34.682Z,20.33
2023-03-05T04:05:36.868Z,21.30
2023-03-05T04:08:39.247Z,19.93
2023-03-05T04:11:41.400Z,17.10
2023-03-05T04:14:44.478Z,17.75
2023-03-05T04:17:46.633Z,22.92
2023-03-05T04:20:48.714Z,22.90
2023-03-05T04:23:51.099Z,19.80
2023-03-05T04:26:53.814Z,24.10
2023-03-05T04:29:55.916Z,19.58
2023-03-05T04:32:58.287Z,16.58
2023-03-05T04:36:00.412Z,19.97
2023-03-05T04:39:02.779Z,19.63
2023-03-05T04:42:05.087Z,25.05
2023-03-05T04:45:08.501Z,23.80
2023-03-05T04:48:11.926Z,19.75
2023-03-05T04:51:14.059Z,20.70
2023-03-05T04:54:16.124Z,19.03
2023-03-05T04:57:18.267Z,21.55
2023-03-05T05:00:21.153Z,19.30
2023-03-05T05:03:23.345Z,16.25
2023-03-05T05:06:25.381Z,17.23
2023-03-05T05:09:27.864Z,20.43
2023-03-05T05:12:30.840Z,20.67
2023-03-05T05:15:33.196Z,29.05
2023-03-05T05:18:35.632Z,37.13
2023-03-05T05:21:38.179Z,31.17
2023-03-05T05:24:40.295Z,29.90
2023-03-05T05:27:42.607Z,18.98
2023-03-05T05:30:44.720Z,16.30
2023-03-05T05:33:49.585Z,18.08
2023-03-05T05:36:52.398Z,17.27
2023-03-05T05:39:54.631Z,22.80
2023-03-05T05:42:56.744Z,18.58
2023-03-05T05:46:00.882Z,18.67
2023-03-05T05:49:03.333Z,20.30
2023-03-05T05:52:05.780Z,18.30
2023-03-05T05:55:08.485Z,20.63
2023-03-05T05:58:10.907Z,17.50
2023-03-05T06:01:33.125Z,20.73
2023-03-05T06:04:36.159Z,19.17
2023-03-05T06:07:38.503Z,19.17
2023-03-05T06:10:40.683Z,20.40
2023-03-05T06:13:43.087Z,22.83
2023-03-05T06:16:45.347Z,23.58
2023-03-05T06:19:47.460Z,22.75
2023-03-05T06:22:49.962Z,24.05
2023-03-05T06:25:52.817Z,24.97
2023-03-05T06:28:55.115Z,20.05
2023-03-05T06:31:57.142Z,20.85
2023-03-05T06:34:59.476Z,23.98
2023-03-05T06:38:01.524Z,22.33
2023-03-05T06:41:10.517Z,16.20
2023-03-05T06:44:12.680Z,13.40
2023-03-05T06:47:15.011Z,17.80
2023-03-05T06:50:17.392Z,14.85
2023-03-05T06:53:19.397Z,11.57
2023-03-05T06:56:22.333Z,14.50
2023-03-05T06:59:24.606Z,16.38
2023-03-05T07:02:26.968Z,13.93
2023-03-05T07:05:29.104Z,12.45
2023-03-05T07:08:32.023Z,11.02
2023-03-05T07:11:34.453Z,13.83
2023-03-05T07:14:37.176Z,15.75
2023-03-05T07:17:39.187Z,19.67
2023-03-05T07:20:41.531Z,19.27
2023-03-05T07:23:44.163Z,19.00
2023-03-05T07:26:47.992Z,19.00
2023-03-05T07:29:51.361Z,12.95
2023-03-05T07:32:53.524Z,11.88
2023-03-05T07:35:56.922Z,28.05
2023-03-05T07:38:59.242Z,24.70
2023-03-05T07:42:01.364Z,26.90
2023-03-05T07:45:19.432Z,37.17
2023-03-05T07:48:21.632Z,46.10
2023-03-05T08:12:18.759Z,22.45
2023-03-05T08:15:20.881Z,23.92
2023-03-05T08:18:22.916Z,15.98
2023-03-05T08:21:30.670Z,15.23
2023-03-05T08:24:32.799Z,10.23
2023-03-05T08:27:38.862Z,11.45
2023-03-05T08:30:41.313Z,11.90
2023-03-05T08:33:43.811Z,11.60
2023-03-05T08:36:45.878Z,10.03
2023-03-05T08:39:47.946Z,13.23
2023-03-05T08:42:52.001Z,11.63
2023-03-05T08:45:54.095Z,13.75
2023-03-05T08:48:56.192Z,13.95
2023-03-05T08:51:58.328Z,14.87
2023-03-05T08:55:00.503Z,16.08
2023-03-05T08:58:02.863Z,10.75
2023-03-05T09:01:05.793Z,9.75
2023-03-05T09:04:08.213Z,10.15
2023-03-05T09:07:10.611Z,10.33
2023-03-05T09:10:14.728Z,11.18
2023-03-05T09:13:16.825Z,8.80
2023-03-05T09:16:19.867Z,13.40
2023-03-05T09:19:22.395Z,7.37
2023-03-05T09:22:24.439Z,9.73
2023-03-05T09:25:26.706Z,11.57
2023-03-05T09:28:28.750Z,9.65
2023-03-05T09:31:30.914Z,8.35
2023-03-05T09:34:34.679Z,12.30
2023-03-05T09:37:36.940Z,9.90
2023-03-05T09:41:03.622Z,15.57
2023-03-05T09:44:35.202Z,12.13
2023-03-05T09:48:11.253Z,7.40
2023-03-05T09:51:20.348Z,7.60
2023-03-05T09:54:29.375Z,11.57
2023-03-05T09:57:41.533Z,13.50
2023-03-05T10:00:45.799Z,6.65
2023-03-05T10:03:57.573Z,11.80
2023-03-05T10:07:07.303Z,11.65
2023-03-05T10:10:15.772Z,11.03
2023-03-05T10:13:26.581Z,13.65
2023-03-05T10:16:34.788Z,13.02
2023-03-05T10:19:46.053Z,10.35
2023-03-05T10:26:44.358Z,7.73
2023-03-05T10:30:13.029Z,12.45
2023-03-05T10:33:25.664Z,12.68
2023-03-05T10:36:46.979Z,11.18
2023-03-05T10:40:11.144Z,3.72
2023-03-05T10:43:24.156Z,11.60
2023-03-05T10:46:32.971Z,6.53
2023-03-05T10:49:48.432Z,12.60
2023-03-05T10:53:16.450Z,11.80
2023-03-05T10:56:22.334Z,14.05
2023-03-05T10:59:24.388Z,12.20
2023-03-05T11:02:26.675Z,8.05
2023-03-05T11:05:37.424Z,15.93
2023-03-05T11:08:39.896Z,14.27
2023-03-05T11:11:42.027Z,14.55
2023-03-05T11:15:04.758Z,13.87
2023-03-05T11:18:28.982Z,15.07
2023-03-05T11:21:31.362Z,12.80
2023-03-05T11:24:34.014Z,10.65
2023-03-05T11:27:39.704Z,10.15
2023-03-05T11:30:41.844Z,15.90
2023-03-05T11:34:21.093Z,15.85
2023-03-05T11:37:32.684Z,23.45
2023-03-05T11:40:38.235Z,26.15
2023-03-05T11:43:43.878Z,23.48
2023-03-05T11:46:53.005Z,17.10
2023-03-05T11:50:05.420Z,15.95
2023-03-05T11:53:23.916Z,15.23
2023-03-05T11:56:30.475Z,20.05
2023-03-05T11:59:39.714Z,15.45
2023-03-05T12:02:43.046Z,16.47
2023-03-05T12:05:49.689Z,17.67
2023-03-05T12:08:58.942Z,21.27
2023-03-05T12:12:23.525Z,19.23
2023-03-05T12:15:47.589Z,17.73
2023-03-05T12:19:30.747Z,14.53
2023-03-05T12:22:43.330Z,22.30
2023-03-05T12:25:55.306Z,21.88
2023-03-05T12:28:58.551Z,23.55
2023-03-05T12:32:01.684Z,28.08
2023-03-05T12:35:06.356Z,21.97
2023-03-05T12:38:31.682Z,26.42
2023-03-05T12:41:35.178Z,23.27
2023-03-05T12:44:39.804Z,20.02
2023-03-05T12:47:47.404Z,21.42
2023-03-05T12:50:52.746Z,23.97
2023-03-05T12:53:55.674Z,23.45
2023-03-05T12:57:00.987Z,18.80
2023-03-05T13:00:11.058Z,22.23
2023-03-05T13:03:24.013Z,20.30
2023-03-05T13:06:30.839Z,22.37
2023-03-05T13:09:36.441Z,22.15
2023-03-05T13:12:39.831Z,26.48
2023-03-05T13:15:47.288Z,25.25
2023-03-05T13:18:50.551Z,21.65
2023-03-05T13:22:01.808Z,23.43
2023-03-05T13:25:16.830Z,26.35
2023-03-05T13:28:18.979Z,23.98
2023-03-05T13:31:23.137Z,21.50
2023-03-05T13:34:47.341Z,22.20
2023-03-05T13:37:50.376Z,29.77
2023-03-05T13:41:11.988Z,25.75
2023-03-05T13:44:22.150Z,23.50
2023-03-05T13:47:28.672Z,24.83
2023-03-05T13:50:36.556Z,23.83
2023-03-05T13:53:40.124Z,23.57
2023-03-05T13:56:58.082Z,20.70
2023-03-05T14:00:01.078Z,33.65
2023-03-05T14:03:35.732Z,34.35
2023-03-05T14:06:55.193Z,23.08
2023-03-05T14:09:57.566Z,36.77
2023-03-05T14:13:04.050Z,27.92
2023-03-05T14:16:13.134Z,28.27
2023-03-05T14:19:35.563Z,37.58
2023-03-05T14:22:43.427Z,40.65
2023-03-05T14:25:45.772Z,25.40
2023-03-05T14:29:11.496Z,37.45
2023-03-05T14:32:28.395Z,34.95
2023-03-05T14:35:31.321Z,21.50
2023-03-05T14:38:34.673Z,23.90
2023-03-05T14:41:41.797Z,31.60
2023-03-05T14:44:44.464Z,27.92
2023-03-05T14:47:47.040Z,22.98
2023-03-05T14:50:56.721Z,23.05
2023-03-05T14:53:59.461Z,34.75
2023-03-05T14:57:02.067Z,29.30
2023-03-05T15:00:04.892Z,23.85
2023-03-05T15:03:07.648Z,32.85
2023-03-05T15:06:33.099Z,22.10
2023-03-05T15:09:35.418Z,31.10
2023-03-05T15:12:38.065Z,29.97
2023-03-05T15:15:42.518Z,21.33
2023-03-05T15:18:44.995Z,18.55
2023-03-05T15:21:47.472Z,18.42
2023-03-05T15:24:50.908Z,31.17
2023-03-05T15:27:53.193Z,25.10
2023-03-05T15:30:57.124Z,24.25
2023-03-05T15:34:00.224Z,23.05
2023-03-05T15:37:03.654Z,23.13
2023-03-05T15:40:06.525Z,10.82
2023-03-05T15:43:09.660Z,16.40
2023-03-05T15:46:11.767Z,10.73
2023-03-05T15:49:14.739Z,6.80
2023-03-05T15:52:17.456Z,4.30
2023-03-05T15:55:20.003Z,4.72
2023-03-05T15:58:22.163Z,4.80
2023-03-05T16:01:24.685Z,5.82
2023-03-05T16:04:29.449Z,5.93
2023-03-05T16:07:34.138Z,4.47
2023-03-05T16:10:38.628Z,2.72
2023-03-05T16:13:44.671Z,4.10
2023-03-05T16:16:47.710Z,6.50
2023-03-05T16:19:54.641Z,4.93
2023-03-05T16:22:57.228Z,6.45
2023-03-05T16:25:59.909Z,5.57
2023-03-05T16:29:02.633Z,3.63
2023-03-05T16:32:05.611Z,4.80
2023-03-05T16:35:08.762Z,6.35
2023-03-05T16:38:11.602Z,4.18
2023-03-05T16:41:16.438Z,2.72
2023-03-05T16:44:19.836Z,4.33
2023-03-05T16:47:23.278Z,4.47
2023-03-05T16:50:25.822Z,5.07
2023-03-05T16:53:28.347Z,6.13
2023-03-05T16:56:30.731Z,5.20
2023-03-05T16:59:33.101Z,3.90
2023-03-05T17:02:35.457Z,4.43
2023-03-05T17:05:38.341Z,3.92
2023-03-05T17:08:42.721Z,6.20
2023-03-05T17:11:45.190Z,5.30
2023-03-05T17:14:47.951Z,4.83
2023-03-05T17:17:51.034Z,4.10
2023-03-05T17:20:54.179Z,3.38
2023-03-05T17:23:56.874Z,5.20
2023-03-05T17:27:00.463Z,4.53
2023-03-05T17:30:03.159Z,6.17
2023-03-05T17:33:06.087Z,6.53
2023-03-05T17:36:16.915Z,8.73
2023-03-05T17:39:19.427Z,3.83
2023-03-05T17:42:21.694Z,3.88
2023-03-05T17:45:24.644Z,4.73
2023-03-05T17:48:27.718Z,3.08
2023-03-05T17:51:30.100Z,4.25
2023-03-05T17:54:33.430Z,4.53
2023-03-05T17:57:43.601Z,3.17
2023-03-05T18:00:46.092Z,3.93
2023-03-05T18:03:48.546Z,9.23
2023-03-05T18:06:50.931Z,7.90
2023-03-05T18:09:53.378Z,6.47
2023-03-05T18:12:56.490Z,8.60
2023-03-05T18:16:00.138Z,4.80
2023-03-05T18:19:02.679Z,5.03
2023-03-05T18:22:06.213Z,6.93
2023-03-05T18:25:10.635Z,55.13
2023-03-05T18:28:14.708Z,37.03
2023-03-05T18:31:17.246Z,9.17
2023-03-05T18:34:21.444Z,7.20
2023-03-05T18:37:24.392Z,7.03
2023-03-05T18:41:27.971Z,7.75
2023-03-05T18:45:30.209Z,3.72
2023-03-05T18:48:52.168Z,4.03
2023-03-05T18:51:54.647Z,6.82
2023-03-05T18:54:58.572Z,5.93
2023-03-05T18:58:03.071Z,7.15
2023-03-05T19:01:06.735Z,7.93
2023-03-05T19:04:10.246Z,8.50
2023-03-05T19:07:12.730Z,7.82
2023-03-05T19:10:16.243Z,9.63
2023-03-05T19:13:41.143Z,6.43
2023-03-05T19:16:44.260Z,6.05
2023-03-05T19:19:51.169Z,5.57
2023-03-05T19:22:55.822Z,6.95
2023-03-05T19:25:58.182Z,4.03
2023-03-05T19:29:02.189Z,5.75
2023-03-05T19:32:05.524Z,4.43
2023-03-05T19:35:09.028Z,4.37
2023-03-05T19:38:11.352Z,4.72
2023-03-05T19:41:14.010Z,3.53
2023-03-05T19:44:16.987Z,4.43
2023-03-05T19:47:19.403Z,6.00
2023-03-05T19:50:21.992Z,4.43
2023-03-05T19:53:25.440Z,3.10
2023-03-05T19:56:27.816Z,2.42
2023-03-05T19:59:30.261Z,2.35
2023-03-05T20:02:36.019Z,5.00
2023-03-05T20:05:50.475Z,4.10
2023-03-05T20:08:53.231Z,4.30
2023-03-05T20:11:57.885Z,2.90
2023-03-05T20:15:00.331Z,4.10
2023-03-05T20:18:02.367Z,2.50
2023-03-05T20:21:04.903Z,2.83
2023-03-05T20:24:11.886Z,5.55
2023-03-05T20:27:13.964Z,4.57
2023-03-05T20:30:17.990Z,5.20
2023-03-05T20:33:20.512Z,4.43
2023-03-05T20:36:29.173Z,6.10
2023-03-05T20:39:32.120Z,4.88
2023-03-05T20:42:34.841Z,6.07
2023-03-05T20:45:37.446Z,4.53
2023-03-05T20:48:39.823Z,4.03
2023-03-05T20:51:42.388Z,4.03
2023-03-05T20:54:47.720Z,4.60
2023-03-05T20:57:50.276Z,5.15
2023-03-05T21:00:53.372Z,4.18
2023-03-05T21:03:59.813Z,3.15
2023-03-05T21:07:02.128Z,8.23
2023-03-05T21:10:05.160Z,5.30
2023-03-05T21:13:07.329Z,4.10
2023-03-05T21:16:13.610Z,1.65
2023-03-05T21:19:16.360Z,3.53
2023-03-05T21:22:18.630Z,4.37
2023-03-05T21:25:27.634Z,3.97
2023-03-05T21:28:31.025Z,3.50
2023-03-05T21:31:34.325Z,4.63
2023-03-05T21:34:36.700Z,3.90
2023-03-05T21:37:42.616Z,3.93
2023-03-05T21:40:47.491Z,4.65
2023-03-05T21:43:49.864Z,5.40
2023-03-05T21:46:51.992Z,12.52
2023-03-05T21:49:54.102Z,6.30
2023-03-05T21:52:56.348Z,4.23
2023-03-05T21:56:31.302Z,5.47
2023-03-05T21:59:34.003Z,2.42
2023-03-05T22:02:36.851Z,3.40
2023-03-05T22:05:38.947Z,4.00
2023-03-05T22:08:41.195Z,1.47
2023-03-05T22:11:43.992Z,6.28
2023-03-05T22:14:46.109Z,5.13
2023-03-05T22:17:48.261Z,5.22
2023-03-05T22:20:51.016Z,2.70
2023-03-05T22:23:54.459Z,3.53
2023-03-05T22:26:56.571Z,6.88
2023-03-05T22:29:58.766Z,1.88
2023-03-05T22:33:03.981Z,3.15
2023-03-05T22:36:10.910Z,3.17
2023-03-05T22:39:12.922Z,8.20
2023-03-05T22:42:14.924Z,5.07
2023-03-05T22:45:18.291Z,3.90
2023-03-05T22:48:20.353Z,8.35
2023-03-05T22:51:22.629Z,3.30
2023-03-05T22:54:24.636Z,6.97
2023-03-05T22:57:26.680Z,3.47
2023-03-05T23:00:28.827Z,3.83
2023-03-05T23:03:31.023Z,3.30
2023-03-05T23:06:33.228Z,2.95
2023-03-05T23:09:35.282Z,2.50
2023-03-05T23:12:41.252Z,3.03
2023-03-05T23:15:43.359Z,2.05
2023-03-05T23:18:45.687Z,4.13
2023-03-05T23:21:47.714Z,3.63
2023-03-05T23:24:49.902Z,2.57
2023-03-05T23:27:52.388Z,4.13
2023-03-05T23:30:54.598Z,2.67
2023-03-05T23:33:57.003Z,1.85
2023-03-05T23:37:00.626Z,2.63
2023-03-05T23:40:03.837Z,2.83
2023-03-05T23:43:06.113Z,2.75
2023-03-05T23:46:11.896Z,2.90
2023-03-05T23:49:14.522Z,3.35
2023-03-05T23:52:16.969Z,3.85
2023-03-05T23:55:25.489Z,4.33
2023-03-05T23:58:28.206Z,3.08
